createdAt,value
2023-05-01T00:02:04.769Z,6.08
2023-05-01T00:04:36.225Z,6.01
2023-05-01T00:07:02.875Z,5.92
2023-05-01T00:09:29.300Z,5.93
2023-05-01T00:11:55.765Z,5.85
2023-05-01T00:14:22.257Z,5.89
2023-05-01T00:16:48.888Z,5.81
2023-05-01T00:19:18.989Z,5.72
2023-05-01T00:21:46.862Z,5.68
2023-05-01T00:24:13.488Z,5.52
2023-05-01T00:26:39.933Z,5.63
2023-05-01T00:29:07.258Z,5.66
2023-05-01T00:31:33.756Z,5.72
2023-05-01T00:34:00.359Z,5.69
2023-05-01T00:36:26.753Z,5.71
2023-05-01T00:38:53.207Z,5.71
2023-05-01T00:41:19.604Z,5.64
2023-05-01T00:43:46.182Z,5.60
2023-05-01T00:46:12.689Z,5.55
2023-05-01T00:48:39.183Z,5.55
2023-05-01T00:51:08.571Z,5.59
2023-05-01T00:53:35.172Z,5.54
2023-05-01T00:56:02.276Z,5.52
2023-05-01T00:58:29.600Z,5.41
2023-05-01T01:00:56.817Z,5.47
2023-05-01T01:03:23.290Z,5.45
2023-05-01T01:05:56.754Z,5.50
2023-05-01T01:08:42.195Z,5.41
2023-05-01T01:11:34.138Z,5.32
2023-05-01T01:14:09.597Z,5.38
2023-05-01T01:16:56.327Z,5.38
2023-05-01T01:19:47.682Z,5.31
2023-05-01T01:22:21.023Z,5.32
2023-05-01T01:25:06.442Z,5.27
2023-05-01T01:28:00.788Z,5.23
2023-05-01T01:31:04.233Z,5.27
2023-05-01T01:33:52.580Z,5.22
2023-05-01T01:36:26.352Z,5.22
2023-05-01T01:39:23.638Z,5.09
2023-05-01T01:41:52.448Z,5.17
2023-05-01T01:44:41.529Z,5.13
2023-05-01T01:47:12.090Z,5.06
2023-05-01T01:49:42.362Z,5.02
2023-05-01T01:52:13.058Z,4.98
2023-05-01T01:54:44.860Z,4.97
2023-05-01T01:57:14.537Z,4.95
2023-05-01T01:59:42.734Z,4.99
2023-05-01T02:02:11.328Z,4.98
2023-05-01T02:04:41.924Z,4.95
2023-05-01T02:07:11.360Z,4.74
2023-05-01T02:09:39.020Z,4.87
2023-05-01T02:12:08.111Z,4.84
2023-05-01T02:14:35.549Z,4.84
2023-05-01T02:17:02.914Z,4.82
2023-05-01T02:19:32.183Z,4.81
2023-05-01T02:21:59.647Z,4.88
2023-05-01T02:24:28.426Z,4.90
2023-05-01T02:26:59.630Z,4.82
2023-05-01T02:29:26.744Z,4.83
2023-05-01T02:31:53.290Z,4.77
2023-05-01T02:34:19.804Z,4.83
2023-05-01T02:36:46.304Z,4.74
2023-05-01T02:39:13.192Z,4.71
2023-05-01T02:41:41.614Z,4.70
2023-05-01T02:44:11.336Z,4.58
2023-05-01T02:46:38.808Z,4.66
2023-05-01T02:49:06.242Z,4.68
2023-05-01T02:51:32.740Z,4.74
2023-05-01T02:54:00.138Z,4.80
2023-05-01T02:56:28.022Z,4.80
2023-05-01T02:58:54.761Z,4.84
2023-05-01T03:01:21.882Z,4.80
2023-05-01T03:03:48.421Z,4.84
2023-05-01T03:06:15.067Z,4.84
2023-05-01T03:08:42.069Z,4.79
2023-05-01T03:11:08.929Z,4.80
2023-05-01T03:13:35.625Z,4.82
2023-05-01T03:16:04.509Z,4.84
2023-05-01T03:18:31.026Z,4.86
2023-05-01T03:20:57.693Z,4.82
2023-05-01T03:23:24.241Z,4.88
2023-05-01T03:25:51.225Z,4.81
2023-05-01T03:28:17.704Z,4.80
2023-05-01T03:30:45.401Z,4.77
2023-05-01T03:33:11.936Z,4.86
2023-05-01T03:35:38.988Z,4.94
2023-05-01T03:38:05.921Z,5.01
2023-05-01T03:40:32.408Z,4.99
2023-05-01T03:42:58.872Z,4.97
2023-05-01T03:45:25.344Z,5.00
2023-05-01T03:47:53.091Z,4.98
2023-05-01T03:50:19.541Z,4.93
2023-05-01T03:52:46.006Z,4.94
2023-05-01T03:55:12.482Z,4.94
2023-05-01T03:57:38.984Z,5.04
2023-05-01T04:00:07.217Z,5.00
2023-05-01T04:02:33.691Z,5.02
2023-05-01T04:05:00.814Z,5.02
2023-05-01T04:07:27.299Z,5.04
2023-05-01T04:09:53.879Z,5.07
2023-05-01T04:12:20.522Z,5.16
2023-05-01T04:14:47.038Z,5.24
2023-05-01T04:17:13.479Z,5.32
2023-05-01T04:19:41.102Z,5.34
2023-05-01T04:22:07.553Z,5.32
2023-05-01T04:24:34.002Z,5.30
2023-05-01T04:27:00.706Z,5.32
2023-05-01T04:29:27.086Z,5.34
2023-05-01T04:31:53.618Z,5.28
2023-05-01T04:34:20.301Z,5.30
2023-05-01T04:36:46.908Z,5.42
2023-05-01T04:39:13.352Z,5.40
2023-05-01T04:41:39.850Z,5.43
2023-05-01T04:44:06.341Z,5.47
2023-05-01T04:46:33.482Z,5.49
2023-05-01T04:48:59.943Z,5.38
2023-05-01T04:51:27.964Z,5.47
2023-05-01T04:53:55.462Z,5.48
2023-05-01T04:56:22.093Z,5.55
2023-05-01T04:58:48.548Z,5.59
2023-05-01T05:01:15.060Z,5.78
2023-05-01T05:03:41.863Z,5.74
2023-05-01T05:06:08.580Z,5.77
2023-05-01T05:08:35.114Z,5.80
2023-05-01T05:11:01.560Z,5.81
2023-05-01T05:13:28.817Z,6.00
2023-05-01T05:15:55.469Z,6.07
2023-05-01T05:18:22.474Z,6.08
2023-05-01T05:20:49.312Z,6.23
2023-05-01T05:23:16.095Z,6.21
2023-05-01T05:25:42.583Z,6.39
2023-05-01T05:28:09.442Z,6.45
2023-05-01T05:30:36.436Z,6.52
2023-05-01T05:33:03.515Z,6.61
2023-05-01T05:35:30.174Z,6.78
2023-05-01T05:37:56.564Z,6.87
2023-05-01T05:40:23.034Z,7.12
2023-05-01T05:42:49.486Z,7.42
2023-05-01T05:45:16.074Z,7.65
2023-05-01T05:47:42.516Z,7.97
2023-05-01T05:50:10.005Z,8.13
2023-05-01T05:52:36.503Z,8.14
2023-05-01T05:55:03.009Z,8.22
2023-05-01T05:57:29.915Z,8.17
2023-05-01T05:59:57.430Z,8.35
2023-05-01T06:02:24.510Z,8.46
2023-05-01T06:04:51.349Z,8.83
2023-05-01T06:07:17.847Z,8.91
2023-05-01T06:09:44.251Z,8.90
2023-05-01T06:12:10.698Z,9.31
2023-05-01T06:14:37.123Z,9.10
2023-05-01T06:17:03.670Z,9.33
2023-05-01T06:19:30.238Z,9.45
2023-05-01T06:21:56.721Z,9.42
2023-05-01T06:24:23.200Z,9.88
2023-05-01T06:26:49.651Z,9.94
2023-05-01T06:29:16.584Z,9.95
2023-05-01T06:31:43.114Z,10.17
2023-05-01T06:34:09.669Z,10.45
2023-05-01T06:36:36.108Z,10.25
2023-05-01T06:39:02.609Z,10.52
2023-05-01T06:41:29.206Z,10.44
2023-05-01T06:43:55.820Z,10.76
2023-05-01T06:46:22.427Z,11.07
2023-05-01T06:48:49.053Z,11.40
2023-05-01T06:51:16.106Z,11.90
2023-05-01T06:53:42.634Z,12.46
2023-05-01T06:56:09.088Z,12.62
2023-05-01T06:58:35.543Z,12.70
2023-05-01T07:01:02.241Z,12.72
2023-05-01T07:03:28.825Z,12.77
2023-05-01T07:05:55.936Z,12.98
2023-05-01T07:08:22.508Z,13.17
2023-05-01T07:10:50.194Z,13.19
2023-05-01T07:13:17.206Z,12.99
2023-05-01T07:15:43.756Z,13.37
2023-05-01T07:18:12.162Z,13.76
2023-05-01T07:20:38.692Z,14.12
2023-05-01T07:23:07.395Z,14.39
2023-05-01T07:25:34.279Z,14.51
2023-05-01T07:28:02.774Z,14.82
2023-05-01T07:30:30.395Z,14.84
2023-05-01T07:32:59.940Z,16.02
2023-05-01T07:35:26.419Z,15.63
2023-05-01T07:37:52.922Z,16.01
2023-05-01T07:40:19.381Z,16.65
2023-05-01T07:42:45.919Z,15.67
2023-05-01T07:45:12.824Z,15.84
2023-05-01T07:47:39.364Z,15.84
2023-05-01T07:50:11.694Z,15.99
2023-05-01T07:52:39.055Z,16.12
2023-05-01T07:55:06.087Z,16.54
2023-05-01T07:57:35.183Z,15.92
2023-05-01T08:00:01.851Z,16.21
2023-05-01T08:02:28.446Z,16.81
2023-05-01T08:04:55.243Z,16.99
2023-05-01T08:07:21.940Z,16.68
2023-05-01T08:09:48.450Z,15.74
2023-05-01T08:12:14.967Z,15.41
2023-05-01T08:14:41.513Z,15.64
2023-05-01T08:17:08.063Z,15.80
2023-05-01T08:19:35.001Z,15.81
2023-05-01T08:22:01.561Z,16.02
2023-05-01T08:24:28.118Z,15.81
2023-05-01T08:26:54.623Z,16.23
2023-05-01T08:29:21.079Z,17.33
2023-05-01T08:31:47.525Z,17.80
2023-05-01T08:34:14.075Z,17.04
2023-05-01T08:36:40.478Z,17.38
2023-05-01T08:39:07.463Z,17.80
2023-05-01T08:41:35.720Z,17.75
2023-05-01T08:44:03.250Z,17.62
2023-05-01T08:46:35.645Z,17.30
2023-05-01T08:49:05.418Z,17.70
2023-05-01T08:51:33.359Z,17.60
2023-05-01T08:54:03.475Z,17.40
2023-05-01T08:56:31.686Z,16.85
2023-05-01T08:59:01.171Z,16.49
2023-05-01T09:01:29.566Z,16.79
2023-05-01T09:03:58.148Z,16.11
2023-05-01T09:06:28.241Z,16.02
2023-05-01T09:08:55.183Z,16.27
2023-05-01T09:11:25.452Z,16.61
2023-05-01T09:13:53.215Z,16.65
2023-05-01T09:16:21.010Z,17.46
2023-05-01T09:18:48.087Z,17.39
2023-05-01T09:21:14.653Z,17.09
2023-05-01T09:23:41.254Z,17.00
2023-05-01T09:26:08.142Z,17.14
2023-05-01T09:28:45.477Z,17.67
2023-05-01T09:31:32.637Z,17.87
2023-05-01T09:34:01.626Z,17.86
2023-05-01T09:36:30.955Z,18.03
2023-05-01T09:38:58.308Z,17.81
2023-05-01T09:41:24.782Z,17.86
2023-05-01T09:43:52.954Z,17.82
2023-05-01T09:46:20.048Z,17.23
2023-05-01T09:48:58.719Z,16.86
2023-05-01T09:51:29.945Z,17.34
2023-05-01T09:53:58.884Z,17.34
2023-05-01T09:56:34.085Z,17.13
2023-05-01T09:59:20.610Z,17.11
2023-05-01T10:01:52.417Z,17.49
2023-05-01T10:04:29.902Z,17.82
2023-05-01T10:06:56.539Z,18.76
2023-05-01T10:09:29.797Z,18.51
2023-05-01T10:11:57.729Z,18.76
2023-05-01T10:14:25.649Z,18.66
2023-05-01T10:16:53.225Z,18.35
2023-05-01T10:19:20.209Z,18.79
2023-05-01T10:21:46.886Z,19.79
2023-05-01T10:24:15.199Z,19.84
2023-05-01T10:26:42.973Z,18.98
2023-05-01T10:29:09.528Z,19.19
2023-05-01T10:31:36.152Z,19.45
2023-05-01T10:34:03.456Z,18.53
2023-05-01T10:36:39.261Z,19.08
2023-05-01T10:39:07.019Z,19.20
2023-05-01T10:41:55.085Z,19.17
2023-05-01T10:44:28.248Z,18.98
2023-05-01T10:46:55.470Z,18.64
2023-05-01T10:49:22.579Z,18.20
2023-05-01T10:51:59.153Z,19.06
2023-05-01T10:54:27.403Z,19.96
2023-05-01T10:56:56.275Z,19.91
2023-05-01T10:59:22.850Z,20.35
2023-05-01T11:01:53.494Z,19.94
2023-05-01T11:04:27.485Z,19.96
2023-05-01T11:07:07.887Z,20.15
2023-05-01T11:09:55.306Z,20.18
2023-05-01T11:12:47.135Z,19.80
2023-05-01T11:15:26.405Z,19.15
2023-05-01T11:17:52.981Z,19.59
2023-05-01T11:20:25.602Z,19.57
2023-05-01T11:22:54.257Z,19.19
2023-05-01T11:25:31.087Z,18.98
2023-05-01T11:27:59.475Z,18.83
2023-05-01T11:30:26.016Z,18.86
2023-05-01T11:32:53.071Z,19.28
2023-05-01T11:35:22.618Z,19.10
2023-05-01T11:37:51.214Z,18.60
2023-05-01T11:40:25.981Z,18.43
2023-05-01T11:43:03.071Z,18.43
2023-05-01T11:45:30.634Z,18.16
2023-05-01T11:47:57.802Z,18.22
2023-05-01T11:50:36.064Z,17.95
2023-05-01T11:53:14.383Z,17.67
2023-05-01T11:55:41.027Z,17.32
2023-05-01T11:58:07.617Z,17.77
2023-05-01T12:00:39.197Z,17.67
2023-05-01T12:03:10.931Z,17.54
2023-05-01T12:05:42.875Z,17.29
2023-05-01T12:08:20.862Z,17.46
2023-05-01T12:10:57.489Z,17.65
2023-05-01T12:13:24.856Z,17.29
2023-05-01T12:15:57.273Z,17.45
2023-05-01T12:18:24.090Z,17.29
2023-05-01T12:20:52.528Z,17.21
2023-05-01T12:23:40.804Z,16.59
2023-05-01T12:26:18.232Z,16.95
2023-05-01T12:28:57.993Z,16.84
2023-05-01T12:31:29.090Z,16.79
2023-05-01T12:34:08.525Z,16.77
2023-05-01T12:36:36.234Z,16.84
2023-05-01T12:39:09.553Z,16.83
2023-05-01T12:41:46.711Z,16.66
2023-05-01T12:44:30.576Z,16.57
2023-05-01T12:47:04.140Z,16.35
2023-05-01T12:49:32.422Z,16.49
2023-05-01T12:52:06.234Z,16.40
2023-05-01T12:54:37.434Z,16.51
2023-05-01T12:57:14.488Z,16.54
2023-05-01T12:59:43.180Z,16.42
2023-05-01T13:02:12.556Z,16.45
2023-05-01T13:04:40.185Z,16.30
2023-05-01T13:07:16.991Z,16.42
2023-05-01T13:10:13.263Z,16.61
2023-05-01T13:12:46.327Z,16.45
2023-05-01T13:15:21.123Z,16.36
2023-05-01T13:17:47.877Z,16.44
2023-05-01T13:20:15.503Z,16.48
2023-05-01T13:22:42.629Z,16.46
2023-05-01T13:25:25.641Z,16.78
2023-05-01T13:27:53.324Z,18.16
2023-05-01T13:30:30.427Z,20.31
2023-05-01T13:32:56.960Z,20.75
2023-05-01T13:35:24.991Z,19.89
2023-05-01T13:37:52.339Z,19.52
2023-05-01T13:40:19.825Z,18.80
2023-05-01T13:42:49.229Z,18.29
2023-05-01T13:45:19.572Z,18.08
2023-05-01T13:47:46.211Z,17.99
2023-05-01T13:50:17.731Z,17.83
2023-05-01T13:52:45.827Z,17.48
2023-05-01T13:55:17.559Z,17.25
2023-05-01T13:57:44.583Z,17.06
2023-05-01T14:00:19.026Z,17.18
2023-05-01T14:02:50.310Z,17.28
2023-05-01T14:05:23.147Z,16.82
2023-05-01T14:07:58.844Z,16.93
2023-05-01T14:10:28.243Z,16.66
2023-05-01T14:12:58.954Z,16.62
2023-05-01T14:15:25.882Z,16.76
2023-05-01T14:17:53.040Z,16.57
2023-05-01T14:20:19.846Z,16.54
2023-05-01T14:22:53.426Z,16.65
2023-05-01T14:25:26.712Z,16.67
2023-05-01T14:27:54.075Z,16.87
2023-05-01T14:30:27.639Z,16.79
2023-05-01T14:32:55.293Z,16.89
2023-05-01T14:35:23.347Z,16.75
2023-05-01T14:37:50.415Z,17.11
2023-05-01T14:40:18.792Z,17.18
2023-05-01T14:42:46.161Z,17.01
2023-05-01T14:45:17.222Z,16.89
2023-05-01T14:47:48.699Z,16.88
2023-05-01T14:50:25.146Z,16.93
2023-05-01T14:52:59.102Z,16.78
2023-05-01T14:55:34.997Z,16.79
2023-05-01T14:58:01.961Z,17.09
2023-05-01T15:00:28.420Z,17.40
2023-05-01T15:02:58.438Z,17.25
2023-05-01T15:05:28.451Z,17.40
2023-05-01T15:07:56.902Z,17.52
2023-05-01T15:10:23.927Z,17.28
2023-05-01T15:12:51.295Z,17.24
2023-05-01T15:15:17.912Z,17.19
2023-05-01T15:20:25.859Z,17.97
2023-05-01T15:22:52.340Z,17.99
2023-05-01T15:25:18.834Z,18.41
2023-05-01T15:27:46.171Z,19.21
2023-05-01T15:30:12.938Z,19.45
2023-05-01T15:32:40.000Z,19.63
2023-05-01T15:35:07.287Z,19.63
2023-05-01T15:37:33.841Z,19.33
2023-05-01T15:40:00.521Z,19.39
2023-05-01T15:42:27.029Z,19.54
2023-05-01T15:44:53.463Z,19.48
2023-05-01T15:47:19.844Z,19.33
2023-05-01T15:49:46.359Z,18.27
2023-05-01T15:52:12.822Z,18.13
2023-05-01T15:54:39.515Z,18.20
2023-05-01T15:57:07.630Z,18.14
2023-05-01T15:59:34.146Z,18.27
2023-05-01T16:02:00.820Z,18.30
2023-05-01T16:04:27.284Z,18.44
2023-05-01T16:06:53.841Z,18.49
2023-05-01T16:09:31.747Z,18.23
2023-05-01T16:11:59.568Z,17.99
2023-05-01T16:14:26.621Z,17.82
2023-05-01T16:16:53.199Z,17.77
2023-05-01T16:19:20.133Z,17.64
2023-05-01T16:21:46.671Z,17.64
2023-05-01T16:24:14.216Z,17.43
2023-05-01T16:26:41.503Z,17.46
2023-05-01T16:29:08.356Z,17.39
2023-05-01T16:31:38.961Z,17.25
2023-05-01T16:34:07.033Z,17.16
2023-05-01T16:36:42.357Z,16.89
2023-05-01T16:39:13.949Z,16.94
2023-05-01T16:41:53.715Z,17.07
2023-05-01T16:44:22.032Z,17.18
2023-05-01T16:47:01.066Z,17.09
2023-05-01T16:49:27.921Z,17.10
2023-05-01T16:51:57.092Z,16.90
2023-05-01T16:54:35.505Z,16.74
2023-05-01T16:57:06.029Z,16.50
2023-05-01T16:59:32.672Z,16.38
2023-05-01T17:01:59.236Z,16.17
2023-05-01T17:04:26.367Z,16.09
2023-05-01T17:06:53.177Z,16.00
2023-05-01T17:09:20.099Z,16.04
2023-05-01T17:11:46.606Z,15.91
2023-05-01T17:14:13.077Z,15.87
2023-05-01T17:16:40.322Z,15.82
2023-05-01T17:19:09.667Z,15.47
2023-05-01T17:21:36.309Z,15.18
2023-05-01T17:24:02.935Z,15.24
2023-05-01T17:26:29.398Z,15.42
2023-05-01T17:28:55.860Z,15.48
2023-05-01T17:31:22.828Z,15.66
2023-05-01T17:33:49.543Z,15.66
2023-05-01T17:36:16.307Z,15.61
2023-05-01T17:38:42.734Z,15.65
2023-05-01T17:41:09.321Z,15.56
2023-05-01T17:43:36.062Z,15.36
2023-05-01T17:46:04.842Z,15.33
2023-05-01T17:48:31.447Z,15.39
2023-05-01T17:50:58.217Z,15.44
2023-05-01T17:53:25.137Z,15.36
2023-05-01T17:55:51.846Z,15.28
2023-05-01T17:58:18.486Z,15.08
2023-05-01T18:00:45.045Z,14.94
2023-05-01T18:03:11.544Z,15.08
2023-05-01T18:05:38.327Z,15.03
2023-05-01T18:08:04.999Z,14.98
2023-05-01T18:10:32.313Z,14.85
2023-05-01T18:12:58.867Z,14.84
2023-05-01T18:15:25.904Z,14.87
2023-05-01T18:17:52.571Z,14.91
2023-05-01T18:20:19.624Z,14.80
2023-05-01T18:22:46.134Z,14.71
2023-05-01T18:25:13.389Z,14.70
2023-05-01T18:27:41.673Z,14.60
2023-05-01T18:30:09.107Z,14.61
2023-05-01T18:32:47.006Z,14.57
2023-05-01T18:35:15.713Z,14.44
2023-05-01T18:37:42.995Z,14.40
2023-05-01T18:40:10.256Z,14.27
2023-05-01T18:42:36.770Z,14.25
2023-05-01T18:45:04.053Z,14.19
2023-05-01T18:47:32.384Z,14.10
2023-05-01T18:49:59.534Z,14.05
2023-05-01T18:52:26.436Z,14.02
2023-05-01T18:54:52.916Z,13.95
2023-05-01T18:57:19.350Z,13.99
2023-05-01T18:59:45.848Z,13.94
2023-05-01T19:02:12.400Z,13.96
2023-05-01T19:04:49.422Z,13.99
2023-05-01T19:07:23.792Z,13.89
2023-05-01T19:09:50.377Z,13.91
2023-05-01T19:12:16.931Z,13.82
2023-05-01T19:14:43.572Z,13.75
2023-05-01T19:17:13.204Z,13.73
2023-05-01T19:19:39.713Z,13.68
2023-05-01T19:22:07.167Z,13.67
2023-05-01T19:24:33.698Z,13.61
2023-05-01T19:27:00.278Z,13.55
2023-05-01T19:29:27.196Z,13.51
2023-05-01T19:31:53.755Z,13.51
2023-05-01T19:34:20.689Z,13.53
2023-05-01T19:36:47.250Z,13.25
2023-05-01T19:39:13.935Z,13.12
2023-05-01T19:41:44.809Z,13.04
2023-05-01T19:44:11.515Z,12.85
2023-05-01T19:46:37.948Z,12.94
2023-05-01T19:49:08.014Z,12.84
2023-05-01T19:51:34.558Z,12.77
2023-05-01T19:54:01.484Z,12.71
2023-05-01T19:56:28.004Z,12.64
2023-05-01T19:58:55.254Z,12.59
2023-05-01T20:01:25.115Z,12.49
2023-05-01T20:03:54.339Z,12.38
2023-05-01T20:06:20.924Z,12.36
2023-05-01T20:08:48.339Z,12.19
2023-05-01T20:11:14.973Z,12.11
2023-05-01T20:13:41.713Z,12.12
2023-05-01T20:16:09.809Z,12.06
2023-05-01T20:18:36.354Z,11.92
2023-05-01T20:21:02.753Z,11.86
2023-05-01T20:23:29.289Z,11.76
2023-05-01T20:25:55.948Z,11.76
2023-05-01T20:28:22.400Z,11.81
2023-05-01T20:30:49.539Z,11.90
2023-05-01T20:33:17.601Z,11.89
2023-05-01T20:35:45.331Z,11.89
2023-05-01T20:38:11.805Z,11.90
2023-05-01T20:40:42.581Z,11.87
2023-05-01T20:43:09.548Z,11.87
2023-05-01T20:45:36.151Z,11.86
2023-05-01T20:48:02.964Z,11.83
2023-05-01T20:50:29.568Z,11.81
2023-05-01T20:52:56.428Z,11.85
2023-05-01T20:55:23.824Z,11.74
2023-05-01T20:57:50.390Z,11.76
2023-05-01T21:00:17.238Z,11.84
2023-05-01T21:02:43.996Z,11.89
2023-05-01T21:05:11.305Z,11.84
2023-05-01T21:07:38.933Z,11.95
2023-05-01T21:10:12.178Z,11.94
2023-05-01T21:12:38.702Z,12.02
2023-05-01T21:15:05.793Z,12.08
2023-05-01T21:17:34.537Z,12.03
2023-05-01T21:20:01.755Z,12.02
2023-05-01T21:22:28.502Z,12.01
2023-05-01T21:24:57.101Z,11.96
2023-05-01T21:27:25.015Z,12.01
2023-05-01T21:29:59.493Z,11.87
2023-05-01T21:32:39.116Z,11.73
2023-05-01T21:35:06.966Z,11.71
2023-05-01T21:37:33.847Z,11.90
2023-05-01T21:40:01.752Z,11.94
2023-05-01T21:42:35.644Z,12.01
2023-05-01T21:45:13.548Z,12.06
2023-05-01T21:47:45.925Z,12.07
2023-05-01T21:50:14.833Z,12.10
2023-05-01T21:52:43.579Z,12.15
2023-05-01T21:55:13.454Z,12.02
2023-05-01T21:57:39.906Z,11.99
2023-05-01T22:00:10.368Z,11.99
2023-05-01T22:02:44.936Z,11.90
2023-05-01T22:05:13.272Z,11.99
2023-05-01T22:07:45.122Z,11.96
2023-05-01T22:10:14.610Z,11.83
2023-05-01T22:12:41.581Z,11.82
2023-05-01T22:15:10.308Z,11.79
2023-05-01T22:17:38.281Z,11.88
2023-05-01T22:20:07.053Z,11.71
2023-05-01T22:22:34.684Z,11.77
2023-05-01T22:25:01.311Z,11.78
2023-05-01T22:27:27.960Z,11.93
2023-05-01T22:29:54.437Z,11.76
2023-05-01T22:32:21.166Z,11.68
2023-05-01T22:34:47.840Z,11.58
2023-05-01T22:37:14.255Z,11.53
2023-05-01T22:39:40.866Z,11.67
2023-05-01T22:42:07.399Z,11.68
2023-05-01T22:44:33.881Z,11.62
2023-05-01T22:47:00.365Z,11.69
2023-05-01T22:49:32.010Z,11.75
2023-05-01T22:51:58.699Z,11.56
2023-05-01T22:54:25.228Z,11.51
2023-05-01T22:56:51.752Z,11.50
2023-05-01T22:59:19.097Z,11.57
2023-05-01T23:01:46.213Z,11.53
2023-05-01T23:04:13.564Z,11.47
2023-05-01T23:06:40.444Z,11.48
2023-05-01T23:09:07.438Z,11.39
2023-05-01T23:11:34.806Z,11.36
2023-05-01T23:14:01.625Z,11.35
2023-05-01T23:16:32.087Z,11.22
2023-05-01T23:18:58.743Z,11.22
2023-05-01T23:21:25.404Z,11.06
2023-05-01T23:23:52.474Z,11.00
2023-05-01T23:26:25.567Z,10.97
2023-05-01T23:28:53.217Z,10.81
2023-05-01T23:31:27.115Z,10.84
2023-05-01T23:33:54.721Z,10.88
2023-05-01T23:36:21.508Z,11.09
2023-05-01T23:38:48.055Z,11.15
2023-05-01T23:41:15.321Z,11.11
2023-05-01T23:43:42.396Z,11.15
2023-05-01T23:46:09.177Z,11.09
2023-05-01T23:48:36.270Z,10.92
2023-05-01T23:51:03.277Z,10.97
2023-05-01T23:53:30.208Z,11.10
2023-05-01T23:55:56.927Z,11.04
2023-05-01T23:58:23.760Z,10.98
